createdAt,value
2019-02-07T00:00:27.798Z,21.67
2019-02-07T00:02:55.297Z,14.87
2019-02-07T00:05:22.793Z,17.80
2019-02-07T00:07:50.230Z,16.52
2019-02-07T00:10:17.630Z,14.68
2019-02-07T00:12:45.041Z,16.58
2019-02-07T00:15:12.662Z,14.73
2019-02-07T00:17:41.028Z,15.38
2019-02-07T00:20:08.465Z,15.52
2019-02-07T00:22:38.981Z,16.10
2019-02-07T00:25:03.717Z,17.25
2019-02-07T00:27:31.139Z,18.75
2019-02-07T00:29:58.555Z,14.80
2019-02-07T00:32:25.953Z,16.70
2019-02-07T00:34:53.360Z,18.02
2019-02-07T00:37:20.928Z,15.93
2019-02-07T00:39:48.390Z,16.20
2019-02-07T00:42:15.786Z,16.67
2019-02-07T00:44:50.449Z,16.48
2019-02-07T00:47:10.647Z,17.58
2019-02-07T00:49:38.399Z,16.65
2019-02-07T00:52:05.818Z,18.10
2019-02-07T00:54:33.256Z,18.30
2019-02-07T00:57:01.019Z,15.13
2019-02-07T00:59:28.458Z,16.83
2019-02-07T01:01:55.871Z,17.27
2019-02-07T01:04:23.284Z,13.93
2019-02-07T01:06:50.703Z,18.20
2019-02-07T01:09:18.109Z,16.67
2019-02-07T01:11:45.535Z,16.30
2019-02-07T01:14:13.534Z,16.62
2019-02-07T01:16:40.943Z,17.30
2019-02-07T01:19:08.358Z,16.87
2019-02-07T01:21:35.793Z,17.25
2019-02-07T01:24:03.247Z,15.35
2019-02-07T01:26:30.652Z,14.75
2019-02-07T01:28:58.157Z,15.82
2019-02-07T01:31:25.558Z,15.25
2019-02-07T01:33:52.960Z,17.35
2019-02-07T01:36:20.368Z,16.30
2019-02-07T01:38:47.776Z,16.48
2019-02-07T01:41:15.196Z,16.90
2019-02-07T01:43:42.594Z,20.67
2019-02-07T01:46:10.006Z,16.80
2019-02-07T01:48:37.412Z,15.18
2019-02-07T01:51:04.841Z,19.00
2019-02-07T01:53:32.244Z,16.45
2019-02-07T01:55:59.650Z,18.17
2019-02-07T01:58:27.050Z,17.05
2019-02-07T02:00:54.476Z,16.75
2019-02-07T02:03:21.915Z,17.25
2019-02-07T02:05:49.429Z,17.70
2019-02-07T02:08:16.729Z,14.93
2019-02-07T02:10:44.152Z,16.48
2019-02-07T02:13:11.759Z,15.57
2019-02-07T02:15:39.163Z,14.98
2019-02-07T02:18:06.573Z,16.00
2019-02-07T02:20:33.989Z,20.48
2019-02-07T02:23:01.427Z,17.90
2019-02-07T02:25:28.858Z,22.23
2019-02-07T02:27:56.356Z,16.77
2019-02-07T02:30:27.003Z,20.42
2019-02-07T02:32:54.413Z,19.83
2019-02-07T02:35:21.834Z,19.05
2019-02-07T02:37:49.409Z,17.30
2019-02-07T02:40:16.815Z,16.35
2019-02-07T02:42:44.235Z,21.27
2019-02-07T02:45:12.498Z,17.67
2019-02-07T02:47:39.796Z,16.58
2019-02-07T02:50:07.221Z,18.40
2019-02-07T02:52:34.665Z,17.85
2019-02-07T02:55:02.075Z,20.17
2019-02-07T02:57:29.477Z,18.52
2019-02-07T02:59:56.890Z,18.95
2019-02-07T03:02:28.287Z,17.27
2019-02-07T03:07:55.183Z,39.72
2019-02-07T03:10:24.940Z,18.25
2019-02-07T03:13:03.190Z,16.35
2019-02-07T03:15:49.338Z,16.37
2019-02-07T03:18:09.419Z,22.80
2019-02-07T03:20:49.589Z,19.10
2019-02-07T03:23:22.607Z,21.55
2019-02-07T03:28:57.180Z,38.05
2019-02-07T03:31:25.115Z,18.15
2019-02-07T03:34:08.269Z,19.98
2019-02-07T03:36:38.489Z,16.90
2019-02-07T03:39:13.457Z,16.62
2019-02-07T03:41:53.591Z,17.60
2019-02-07T03:44:23.898Z,18.85
2019-02-07T03:46:54.118Z,15.63
2019-02-07T03:49:21.990Z,17.58
2019-02-07T03:51:51.241Z,15.23
2019-02-07T03:57:29.491Z,32.28
2019-02-07T03:59:57.667Z,18.52
2019-02-07T04:02:25.894Z,21.37
2019-02-07T04:04:55.746Z,14.32
2019-02-07T04:07:23.717Z,17.45
2019-02-07T04:09:51.989Z,17.17
2019-02-07T04:12:34.103Z,17.15
2019-02-07T04:15:01.505Z,16.55
2019-02-07T04:17:29.733Z,18.12
2019-02-07T04:20:07.063Z,16.73
2019-02-07T04:22:39.922Z,21.02
2019-02-07T04:25:09.167Z,18.87
2019-02-07T04:27:42.216Z,16.75
2019-02-07T04:30:15.198Z,20.65
2019-02-07T04:32:57.573Z,14.50
2019-02-07T04:38:25.429Z,36.50
2019-02-07T04:43:48.231Z,37.15
2019-02-07T04:46:26.563Z,21.90
2019-02-07T04:48:45.824Z,19.42
2019-02-07T04:54:23.250Z,38.92
2019-02-07T04:56:59.090Z,20.25
2019-02-07T04:59:41.512Z,17.20
2019-02-07T05:02:11.336Z,15.70
2019-02-07T05:04:39.518Z,18.10
2019-02-07T05:07:08.725Z,18.45
2019-02-07T05:12:34.821Z,36.75
2019-02-07T05:15:19.899Z,20.25
2019-02-07T05:17:52.108Z,22.70
2019-02-07T05:20:20.871Z,19.80
2019-02-07T05:22:51.100Z,19.12
2019-02-07T05:25:24.323Z,24.80
2019-02-07T05:27:51.720Z,19.35
2019-02-07T05:30:19.125Z,20.92
2019-02-07T05:32:52.107Z,18.85
2019-02-07T05:35:35.303Z,21.87
2019-02-07T05:41:12.680Z,40.20
2019-02-07T05:43:55.065Z,21.95
2019-02-07T05:46:38.276Z,19.10
2019-02-07T05:49:05.704Z,18.92
2019-02-07T05:51:35.664Z,19.48
2019-02-07T05:54:22.889Z,19.48
2019-02-07T05:56:55.863Z,19.60
2019-02-07T05:59:29.683Z,22.33
2019-02-07T06:02:00.056Z,17.67
2019-02-07T06:04:33.128Z,20.75
2019-02-07T06:07:06.170Z,21.00
2019-02-07T06:09:43.498Z,20.73
2019-02-07T06:12:12.714Z,23.87
2019-02-07T06:14:40.183Z,18.08
2019-02-07T06:17:07.628Z,20.45
2019-02-07T06:19:46.906Z,22.10
2019-02-07T06:25:15.523Z,38.97
2019-02-07T06:27:48.615Z,20.08
2019-02-07T06:33:16.478Z,43.40
2019-02-07T06:36:02.873Z,20.85
2019-02-07T06:41:31.796Z,42.53
2019-02-07T06:43:59.717Z,21.75
2019-02-07T06:46:30.054Z,18.67
2019-02-07T06:52:10.059Z,44.88
2019-02-07T06:54:39.423Z,25.48
2019-02-07T06:57:12.470Z,21.17
2019-02-07T06:59:45.504Z,18.92
2019-02-07T07:05:24.863Z,42.30
2019-02-07T07:08:04.008Z,25.35
2019-02-07T07:10:33.956Z,22.02
2019-02-07T07:13:07.101Z,26.08
2019-02-07T07:15:36.311Z,21.77
2019-02-07T07:18:20.586Z,19.62
2019-02-07T07:20:50.488Z,24.20
2019-02-07T07:23:23.983Z,18.58
2019-02-07T07:25:51.394Z,24.35
2019-02-07T07:28:24.452Z,23.62
2019-02-07T07:30:52.080Z,21.10
2019-02-07T07:33:32.405Z,22.77
2019-02-07T07:39:10.536Z,48.70
2019-02-07T07:41:41.463Z,23.10
2019-02-07T07:44:25.607Z,21.67
2019-02-07T07:47:00.566Z,22.58
2019-02-07T07:49:43.812Z,23.00
2019-02-07T07:52:31.442Z,22.33
2019-02-07T07:55:01.741Z,21.05
2019-02-07T07:57:35.635Z,21.85
2019-02-07T08:00:04.217Z,22.05
2019-02-07T08:05:29.764Z,42.90
2019-02-07T08:08:07.087Z,21.33
2019-02-07T08:10:37.320Z,24.67
2019-02-07T08:16:03.206Z,46.03
2019-02-07T08:18:34.558Z,21.58
2019-02-07T08:21:07.560Z,20.30
2019-02-07T08:23:40.615Z,20.88
2019-02-07T08:26:09.971Z,24.65
2019-02-07T08:28:42.951Z,23.35
2019-02-07T08:31:10.403Z,22.70
2019-02-07T08:33:39.448Z,20.60
2019-02-07T08:36:12.860Z,21.17
2019-02-07T08:38:45.800Z,21.60
2019-02-07T08:41:16.990Z,21.75
2019-02-07T08:43:52.877Z,20.73
2019-02-07T08:46:26.863Z,22.45
2019-02-07T08:51:50.282Z,44.05
2019-02-07T08:54:30.459Z,19.65
2019-02-07T08:57:03.842Z,23.35
2019-02-07T08:59:33.917Z,19.80
2019-02-07T09:02:11.291Z,22.83
2019-02-07T09:04:44.159Z,22.30
2019-02-07T09:07:15.053Z,23.55
2019-02-07T09:09:43.036Z,21.62
2019-02-07T09:12:13.013Z,21.52
2019-02-07T09:14:40.492Z,23.70
2019-02-07T09:17:17.874Z,18.15
2019-02-07T09:22:43.159Z,43.40
2019-02-07T09:25:16.202Z,24.52
2019-02-07T09:27:44.522Z,25.50
2019-02-07T09:30:30.224Z,23.65
2019-02-07T09:36:04.914Z,40.90
2019-02-07T09:38:22.763Z,26.80
2019-02-07T09:40:55.824Z,23.20
2019-02-07T09:43:39.981Z,22.70
2019-02-07T09:46:11.391Z,22.33
2019-02-07T09:51:30.959Z,43.10
2019-02-07T09:53:58.543Z,23.85
2019-02-07T09:56:26.842Z,22.85
2019-02-07T09:58:54.491Z,19.45
2019-02-07T10:04:14.071Z,38.63
2019-02-07T10:06:44.329Z,20.08
2019-02-07T10:12:06.936Z,42.72
2019-02-07T10:14:46.206Z,19.98
2019-02-07T10:17:17.987Z,20.60
2019-02-07T10:19:49.098Z,18.50
2019-02-07T10:22:16.637Z,18.60
2019-02-07T10:24:50.122Z,20.33
2019-02-07T10:27:21.320Z,19.65
2019-02-07T10:29:54.366Z,20.05
2019-02-07T10:32:22.609Z,15.65
2019-02-07T10:34:55.507Z,18.48
2019-02-07T10:37:43.208Z,16.95
2019-02-07T10:40:14.594Z,22.00
2019-02-07T10:42:47.527Z,16.92
2019-02-07T10:45:20.491Z,18.25
2019-02-07T10:47:56.577Z,14.98
2019-02-07T10:50:26.487Z,14.48
2019-02-07T10:53:00.346Z,13.80
2019-02-07T10:55:32.911Z,15.80
2019-02-07T10:58:01.188Z,15.70
2019-02-07T11:00:29.411Z,13.23
2019-02-07T11:05:54.655Z,28.92
2019-02-07T11:08:42.422Z,17.17
2019-02-07T11:11:14.697Z,15.35
2019-02-07T11:13:47.775Z,15.75
2019-02-07T11:16:17.969Z,17.95
2019-02-07T11:18:56.236Z,16.98
2019-02-07T11:21:39.479Z,16.17
2019-02-07T11:24:13.323Z,15.82
2019-02-07T11:26:46.771Z,13.02
2019-02-07T11:29:14.196Z,18.33
2019-02-07T11:31:46.392Z,15.60
2019-02-07T11:34:19.339Z,17.60
2019-02-07T11:36:54.086Z,16.62
2019-02-07T11:39:29.646Z,14.18
2019-02-07T11:42:09.523Z,15.43
2019-02-07T11:47:30.217Z,32.45
2019-02-07T11:50:00.718Z,16.77
2019-02-07T11:52:43.118Z,17.40
2019-02-07T11:55:28.384Z,15.50
2019-02-07T11:57:59.403Z,14.45
2019-02-07T12:00:26.909Z,15.05
2019-02-07T12:03:15.084Z,15.40
2019-02-07T12:05:55.413Z,19.48
2019-02-07T12:08:22.972Z,16.65
2019-02-07T12:11:01.222Z,16.65
2019-02-07T12:13:34.294Z,18.20
2019-02-07T12:19:17.784Z,41.58
2019-02-07T12:21:39.868Z,23.70
2019-02-07T12:24:09.175Z,21.08
2019-02-07T12:26:36.712Z,21.77
2019-02-07T12:29:11.583Z,25.17
2019-02-07T12:31:54.032Z,24.87
2019-02-07T12:34:23.566Z,19.15
2019-02-07T12:36:52.959Z,18.12
2019-02-07T12:39:21.330Z,18.20
2019-02-07T12:41:49.686Z,16.60
2019-02-07T12:47:25.010Z,29.58
2019-02-07T12:49:58.100Z,13.30
2019-02-07T12:52:31.012Z,15.57
2019-02-07T12:55:03.863Z,13.05
2019-02-07T12:57:36.967Z,12.63
2019-02-07T13:00:04.426Z,14.48
2019-02-07T13:02:33.787Z,13.00
2019-02-07T13:05:06.675Z,13.25
2019-02-07T13:10:30.932Z,27.45
2019-02-07T13:15:54.148Z,22.33
2019-02-07T13:18:21.632Z,12.57
2019-02-07T13:20:59.032Z,11.43
2019-02-07T13:26:19.669Z,20.80
2019-02-07T13:28:57.030Z,9.98
2019-02-07T13:31:36.259Z,11.68
2019-02-07T13:34:07.038Z,6.57
2019-02-07T13:36:37.921Z,9.10
2019-02-07T13:39:05.351Z,8.00
2019-02-07T13:41:41.259Z,8.95
2019-02-07T13:44:23.391Z,11.38
2019-02-07T13:46:50.807Z,10.95
2019-02-07T13:49:24.083Z,12.40
2019-02-07T13:51:57.103Z,13.02
2019-02-07T13:54:30.925Z,10.75
2019-02-07T13:56:58.385Z,10.75
2019-02-07T13:59:31.586Z,13.88
2019-02-07T14:02:16.767Z,9.32
2019-02-07T14:05:05.070Z,8.32
2019-02-07T14:10:24.735Z,16.08
2019-02-07T14:12:54.088Z,5.82
2019-02-07T14:15:37.291Z,7.22
2019-02-07T14:18:10.621Z,6.68
2019-02-07T14:20:58.272Z,6.43
2019-02-07T14:23:31.340Z,6.50
2019-02-07T14:26:13.695Z,6.53
2019-02-07T14:28:41.623Z,7.70
2019-02-07T14:31:14.709Z,6.25
2019-02-07T14:33:42.274Z,5.60
2019-02-07T14:36:15.569Z,6.05
2019-02-07T14:38:58.924Z,6.10
2019-02-07T14:41:27.066Z,4.70
2019-02-07T14:44:06.411Z,4.65
2019-02-07T14:46:36.480Z,4.57
2019-02-07T14:49:03.934Z,4.15
2019-02-07T14:51:31.320Z,4.12
2019-02-07T14:54:00.717Z,5.12
2019-02-07T14:56:26.235Z,5.35
2019-02-07T14:58:53.639Z,4.82
2019-02-07T15:01:21.292Z,4.45
2019-02-07T15:03:48.707Z,4.03
2019-02-07T15:06:16.427Z,4.50
2019-02-07T15:08:43.885Z,3.50
2019-02-07T15:11:11.302Z,3.30
2019-02-07T15:13:38.705Z,4.20
2019-02-07T15:16:06.115Z,4.57
2019-02-07T15:18:33.592Z,3.53
2019-02-07T15:21:01.083Z,3.80
2019-02-07T15:23:28.766Z,3.75
2019-02-07T15:25:56.177Z,3.05
2019-02-07T15:28:23.672Z,4.97
2019-02-07T15:30:51.080Z,4.15
2019-02-07T15:33:18.807Z,5.65
2019-02-07T15:35:46.207Z,4.82
2019-02-07T15:38:13.708Z,4.60
2019-02-07T15:40:41.118Z,7.00
2019-02-07T15:43:08.529Z,5.37
2019-02-07T15:45:35.935Z,5.43
2019-02-07T15:48:03.349Z,4.57
2019-02-07T15:50:37.830Z,6.47
2019-02-07T15:52:58.202Z,5.25
2019-02-07T15:55:25.839Z,6.20
2019-02-07T15:57:53.249Z,5.40
2019-02-07T16:00:21.412Z,6.45
2019-02-07T16:02:48.907Z,5.65
2019-02-07T16:05:16.372Z,4.85
2019-02-07T16:07:44.867Z,4.85
2019-02-07T16:10:12.339Z,5.80
2019-02-07T16:12:39.761Z,4.43
2019-02-07T16:15:07.350Z,3.22
2019-02-07T16:17:34.754Z,3.25
2019-02-07T16:20:02.165Z,3.92
2019-02-07T16:22:29.586Z,2.12
2019-02-07T16:24:57.057Z,3.55
2019-02-07T16:27:24.455Z,2.25
2019-02-07T16:29:51.885Z,3.33
2019-02-07T16:32:19.735Z,2.22
2019-02-07T16:34:47.149Z,2.08
2019-02-07T16:37:15.376Z,1.85
2019-02-07T16:39:42.789Z,2.72
2019-02-07T16:42:10.214Z,2.25
2019-02-07T16:44:37.789Z,2.65
2019-02-07T16:47:05.203Z,3.30
2019-02-07T16:49:32.648Z,3.33
2019-02-07T16:52:00.053Z,4.62
2019-02-07T16:54:27.484Z,5.85
2019-02-07T16:56:54.979Z,4.30
2019-02-07T16:59:22.514Z,3.65
2019-02-07T17:01:50.120Z,5.12
2019-02-07T17:04:17.606Z,3.87
2019-02-07T17:06:45.112Z,4.37
2019-02-07T17:09:12.581Z,4.47
2019-02-07T17:11:40.135Z,3.95
2019-02-07T17:14:07.627Z,3.08
2019-02-07T17:16:35.042Z,3.00
2019-02-07T17:19:02.455Z,3.12
2019-02-07T17:21:29.875Z,2.83
2019-02-07T17:23:57.279Z,1.80
2019-02-07T17:26:24.797Z,2.90
2019-02-07T17:28:52.187Z,2.83
2019-02-07T17:31:19.621Z,2.00
2019-02-07T17:33:47.053Z,2.12
2019-02-07T17:36:14.711Z,1.73
2019-02-07T17:38:42.150Z,2.00
2019-02-07T17:41:09.579Z,1.50
2019-02-07T17:43:37.016Z,1.70
2019-02-07T17:46:04.436Z,1.90
2019-02-07T17:48:32.070Z,1.42
2019-02-07T17:50:59.519Z,1.60
2019-02-07T17:53:26.959Z,1.27
2019-02-07T17:55:54.386Z,1.50
2019-02-07T17:58:21.954Z,1.20
2019-02-07T18:00:58.637Z,1.45
2019-02-07T18:03:26.295Z,0.98
2019-02-07T18:05:53.730Z,1.05
2019-02-07T18:08:21.253Z,1.02
2019-02-07T18:10:48.718Z,1.20
2019-02-07T18:13:16.127Z,0.60
2019-02-07T18:15:43.718Z,0.80
2019-02-07T18:18:11.161Z,0.70
2019-02-07T18:20:38.576Z,1.05
2019-02-07T18:23:05.987Z,1.33
2019-02-07T18:25:33.514Z,1.15
2019-02-07T18:28:01.120Z,1.00
2019-02-07T18:30:28.528Z,1.40
2019-02-07T18:32:55.926Z,1.23
2019-02-07T18:35:23.339Z,1.02
2019-02-07T18:37:50.766Z,1.25
2019-02-07T18:40:19.687Z,1.83
2019-02-07T18:42:47.074Z,1.62
2019-02-07T18:45:15.645Z,0.88
2019-02-07T18:47:43.094Z,1.08
2019-02-07T18:50:12.319Z,1.12
2019-02-07T18:52:39.780Z,0.80
2019-02-07T18:55:07.200Z,0.80
2019-02-07T18:57:34.664Z,0.95
2019-02-07T19:00:02.186Z,1.30
2019-02-07T19:02:29.586Z,1.15
2019-02-07T19:04:57.120Z,0.98
2019-02-07T19:07:24.540Z,1.20
2019-02-07T19:09:51.931Z,2.05
2019-02-07T19:12:19.389Z,1.30
2019-02-07T19:14:46.924Z,1.75
2019-02-07T19:17:14.319Z,1.30
2019-02-07T19:19:41.825Z,2.55
2019-02-07T19:22:09.235Z,2.65
2019-02-07T19:24:37.164Z,1.45
2019-02-07T19:27:04.645Z,1.50
2019-02-07T19:29:32.067Z,0.95
2019-02-07T19:31:59.478Z,1.62
2019-02-07T19:34:26.898Z,1.37
2019-02-07T19:36:54.316Z,1.92
2019-02-07T19:39:21.747Z,2.15
2019-02-07T19:41:49.172Z,3.05
2019-02-07T19:44:16.571Z,2.17
2019-02-07T19:46:44.227Z,3.05
2019-02-07T19:49:11.668Z,2.00
2019-02-07T19:51:39.077Z,2.50
2019-02-07T19:54:06.987Z,1.90
2019-02-07T19:56:34.420Z,1.67
2019-02-07T19:59:01.877Z,1.90
2019-02-07T20:01:29.281Z,1.80
2019-02-07T20:03:56.714Z,2.60
2019-02-07T20:06:24.980Z,2.92
2019-02-07T20:08:52.383Z,1.92
2019-02-07T20:11:19.808Z,1.48
2019-02-07T20:13:47.468Z,3.17
2019-02-07T20:16:14.888Z,1.90
2019-02-07T20:18:42.321Z,2.12
2019-02-07T20:21:09.706Z,2.40
2019-02-07T20:23:39.615Z,3.25
2019-02-07T20:26:04.535Z,2.45
2019-02-07T20:28:31.988Z,2.55
2019-02-07T20:30:59.857Z,2.10
2019-02-07T20:33:27.557Z,2.10
2019-02-07T20:35:54.987Z,2.40
2019-02-07T20:38:22.492Z,2.70
2019-02-07T20:40:49.989Z,2.40
2019-02-07T20:43:17.377Z,2.12
2019-02-07T20:45:44.799Z,2.35
2019-02-07T20:48:12.218Z,2.60
2019-02-07T20:50:39.614Z,2.08
2019-02-07T20:53:07.098Z,3.60
2019-02-07T20:55:34.599Z,4.50
2019-02-07T20:58:02.079Z,2.95
2019-02-07T21:00:29.484Z,2.72
2019-02-07T21:02:56.922Z,3.80
2019-02-07T21:05:24.403Z,2.12
2019-02-07T21:07:51.826Z,2.47
2019-02-07T21:10:20.812Z,3.50
2019-02-07T21:12:48.244Z,3.03
2019-02-07T21:15:18.790Z,2.78
2019-02-07T21:17:43.124Z,3.25
2019-02-07T21:20:13.907Z,2.62
2019-02-07T21:22:41.308Z,2.45
2019-02-07T21:25:11.076Z,2.05
2019-02-07T21:27:38.587Z,2.60
2019-02-07T21:30:12.580Z,2.35
2019-02-07T21:32:40.016Z,2.22
2019-02-07T21:35:08.716Z,2.90
2019-02-07T21:37:36.225Z,3.90
2019-02-07T21:40:03.621Z,3.25
2019-02-07T21:42:31.167Z,3.28
2019-02-07T21:44:58.705Z,3.47
2019-02-07T21:47:26.299Z,3.87
2019-02-07T21:49:53.762Z,3.78
2019-02-07T21:52:21.372Z,3.05
2019-02-07T21:54:48.767Z,4.28
2019-02-07T21:57:16.232Z,3.83
2019-02-07T21:59:43.687Z,3.95
2019-02-07T22:02:11.254Z,3.83
2019-02-07T22:04:38.978Z,3.10
2019-02-07T22:07:06.423Z,4.60
2019-02-07T22:09:34.176Z,2.95
2019-02-07T22:12:01.574Z,5.87
2019-02-07T22:14:29.029Z,4.10
2019-02-07T22:16:56.600Z,3.00
2019-02-07T22:19:24.001Z,3.37
2019-02-07T22:21:51.446Z,3.25
2019-02-07T22:24:18.878Z,5.15
2019-02-07T22:26:46.287Z,3.25
2019-02-07T22:29:13.714Z,3.20
2019-02-07T22:31:41.148Z,3.50
2019-02-07T22:34:08.567Z,2.80
2019-02-07T22:36:36.033Z,3.42
2019-02-07T22:39:03.442Z,4.32
2019-02-07T22:41:30.861Z,2.40
2019-02-07T22:43:58.363Z,3.90
2019-02-07T22:46:25.760Z,2.10
2019-02-07T22:48:53.230Z,3.10
2019-02-07T22:51:20.661Z,2.45
2019-02-07T22:53:48.074Z,2.97
2019-02-07T22:56:15.524Z,3.22
2019-02-07T22:58:42.944Z,3.40
2019-02-07T23:01:10.421Z,3.67
2019-02-07T23:03:37.876Z,4.00
2019-02-07T23:06:05.299Z,3.58
2019-02-07T23:08:32.743Z,3.28
2019-02-07T23:11:00.155Z,3.80
2019-02-07T23:13:27.715Z,3.92
2019-02-07T23:15:55.118Z,3.75
2019-02-07T23:18:22.519Z,3.78
2019-02-07T23:20:49.962Z,4.85
2019-02-07T23:23:17.448Z,3.55
2019-02-07T23:25:44.869Z,5.10
2019-02-07T23:28:12.268Z,4.05
2019-02-07T23:30:39.655Z,3.15
2019-02-07T23:33:07.087Z,4.53
2019-02-07T23:35:34.537Z,4.15
2019-02-07T23:38:01.945Z,4.62
2019-02-07T23:40:29.449Z,4.93
2019-02-07T23:42:56.851Z,4.20
2019-02-07T23:45:24.245Z,4.28
2019-02-07T23:47:51.651Z,4.22
2019-02-07T23:50:19.053Z,4.78
2019-02-07T23:52:46.450Z,4.32
2019-02-07T23:55:13.861Z,4.85
2019-02-07T23:57:41.272Z,3.53
